sensor_id;sensor_type;location;lat;lon;timestamp;P1;durP1;ratioP1;P2;durP2;ratioP2
71622;SDS011;59473;53.214;5.728;2023-06-22T00:02:18;33.43;;;20.20;;
71622;SDS011;59473;53.214;5.728;2023-06-22T00:04:44;32.03;;;20.02;;
71622;SDS011;59473;53.214;5.728;2023-06-22T00:07:09;28.33;;;17.80;;
71622;SDS011;59473;53.214;5.728;2023-06-22T00:09:34;30.90;;;20.07;;
71622;SDS011;59473;53.214;5.728;2023-06-22T00:12:00;32.03;;;19.27;;
71622;SDS011;59473;53.214;5.728;2023-06-22T00:14:25;32.80;;;19.17;;
71622;SDS011;59473;53.214;5.728;2023-06-22T00:16:50;30.23;;;20.33;;
71622;SDS011;59473;53.214;5.728;2023-06-22T00:19:19;30.20;;;20.00;;
71622;SDS011;59473;53.214;5.728;2023-06-22T00:21:46;70.03;;;17.58;;
71622;SDS011;59473;53.214;5.728;2023-06-22T00:24:12;23.50;;;15.67;;
71622;SDS011;59473;53.214;5.728;2023-06-22T00:26:37;26.63;;;17.03;;
71622;SDS011;59473;53.214;5.728;2023-06-22T00:29:02;32.67;;;18.67;;
71622;SDS011;59473;53.214;5.728;2023-06-22T00:31:27;26.67;;;17.80;;
71622;SDS011;59473;53.214;5.728;2023-06-22T00:33:52;27.07;;;18.47;;
71622;SDS011;59473;53.214;5.728;2023-06-22T00:36:18;32.60;;;19.67;;
71622;SDS011;59473;53.214;5.728;2023-06-22T00:38:44;35.83;;;22.27;;
71622;SDS011;59473;53.214;5.728;2023-06-22T00:41:09;37.03;;;22.23;;
71622;SDS011;59473;53.214;5.728;2023-06-22T00:43:34;39.23;;;22.77;;
71622;SDS011;59473;53.214;5.728;2023-06-22T00:45:59;35.17;;;21.93;;
71622;SDS011;59473;53.214;5.728;2023-06-22T00:48:25;69.23;;;22.83;;
71622;SDS011;59473;53.214;5.728;2023-06-22T00:50:50;78.83;;;22.03;;
71622;SDS011;59473;53.214;5.728;2023-06-22T00:53:18;145.73;;;21.85;;
71622;SDS011;59473;53.214;5.728;2023-06-22T00:55:44;42.17;;;19.80;;
71622;SDS011;59473;53.214;5.728;2023-06-22T00:58:11;40.17;;;20.13;;
71622;SDS011;59473;53.214;5.728;2023-06-22T01:00:37;42.23;;;18.63;;
71622;SDS011;59473;53.214;5.728;2023-06-22T01:03:03;26.67;;;18.10;;
71622;SDS011;59473;53.214;5.728;2023-06-22T01:05:28;38.87;;;19.80;;
71622;SDS011;59473;53.214;5.728;2023-06-22T01:08:02;42.75;;;19.90;;
71622;SDS011;59473;53.214;5.728;2023-06-22T01:12:55;46.93;;;21.23;;
71622;SDS011;59473;53.214;5.728;2023-06-22T01:15:28;115.82;;;22.67;;
71622;SDS011;59473;53.214;5.728;2023-06-22T01:17:56;57.15;;;22.00;;
71622;SDS011;59473;53.214;5.728;2023-06-22T01:20:21;46.23;;;20.10;;
71622;SDS011;59473;53.214;5.728;2023-06-22T01:25:33;50.05;;;19.85;;
71622;SDS011;59473;53.214;5.728;2023-06-22T01:30:27;25.97;;;17.93;;
71622;SDS011;59473;53.214;5.728;2023-06-22T01:32:54;31.77;;;16.52;;
71622;SDS011;59473;53.214;5.728;2023-06-22T01:35:20;55.87;;;16.77;;
71622;SDS011;59473;53.214;5.728;2023-06-22T01:37:46;86.40;;;16.25;;
71622;SDS011;59473;53.214;5.728;2023-06-22T01:40:12;104.95;;;18.17;;
71622;SDS011;59473;53.214;5.728;2023-06-22T01:42:37;136.70;;;17.43;;
71622;SDS011;59473;53.214;5.728;2023-06-22T01:45:03;80.40;;;17.37;;
71622;SDS011;59473;53.214;5.728;2023-06-22T01:47:29;74.78;;;18.73;;
71622;SDS011;59473;53.214;5.728;2023-06-22T01:49:55;90.20;;;17.38;;
71622;SDS011;59473;53.214;5.728;2023-06-22T01:52:21;34.10;;;17.27;;
71622;SDS011;59473;53.214;5.728;2023-06-22T01:54:46;84.83;;;18.30;;
71622;SDS011;59473;53.214;5.728;2023-06-22T01:57:12;160.00;;;20.40;;
71622;SDS011;59473;53.214;5.728;2023-06-22T01:59:39;183.65;;;22.50;;
71622;SDS011;59473;53.214;5.728;2023-06-22T02:02:09;56.88;;;18.13;;
71622;SDS011;59473;53.214;5.728;2023-06-22T02:05:17;152.52;;;20.00;;
71622;SDS011;59473;53.214;5.728;2023-06-22T02:07:24;154.88;;;19.70;;
71622;SDS011;59473;53.214;5.728;2023-06-22T02:09:52;243.57;;;21.58;;
71622;SDS011;59473;53.214;5.728;2023-06-22T02:12:18;206.75;;;21.98;;
71622;SDS011;59473;53.214;5.728;2023-06-22T02:14:45;197.20;;;21.60;;
71622;SDS011;59473;53.214;5.728;2023-06-22T02:17:11;221.77;;;21.35;;
71622;SDS011;59473;53.214;5.728;2023-06-22T02:19:37;117.37;;;17.97;;
71622;SDS011;59473;53.214;5.728;2023-06-22T02:22:03;170.77;;;21.13;;
71622;SDS011;59473;53.214;5.728;2023-06-22T02:24:28;145.60;;;20.10;;
71622;SDS011;59473;53.214;5.728;2023-06-22T02:26:56;149.48;;;21.77;;
71622;SDS011;59473;53.214;5.728;2023-06-22T02:29:22;208.65;;;23.10;;
71622;SDS011;59473;53.214;5.728;2023-06-22T02:31:47;118.53;;;19.50;;
71622;SDS011;59473;53.214;5.728;2023-06-22T02:34:12;131.97;;;22.00;;
71622;SDS011;59473;53.214;5.728;2023-06-22T02:36:43;123.40;;;21.05;;
71622;SDS011;59473;53.214;5.728;2023-06-22T02:39:15;137.95;;;21.52;;
71622;SDS011;59473;53.214;5.728;2023-06-22T02:41:40;140.70;;;23.33;;
71622;SDS011;59473;53.214;5.728;2023-06-22T02:44:06;75.10;;;21.47;;
71622;SDS011;59473;53.214;5.728;2023-06-22T02:46:31;179.63;;;25.67;;
71622;SDS011;59473;53.214;5.728;2023-06-22T02:48:56;85.57;;;22.40;;
71622;SDS011;59473;53.214;5.728;2023-06-22T02:51:21;94.00;;;20.47;;
71622;SDS011;59473;53.214;5.728;2023-06-22T02:53:47;236.70;;;22.92;;
71622;SDS011;59473;53.214;5.728;2023-06-22T02:56:12;110.20;;;18.73;;
71622;SDS011;59473;53.214;5.728;2023-06-22T02:58:38;169.85;;;20.77;;
71622;SDS011;59473;53.214;5.728;2023-06-22T03:01:04;181.73;;;21.63;;
71622;SDS011;59473;53.214;5.728;2023-06-22T03:03:29;215.95;;;22.48;;
71622;SDS011;59473;53.214;5.728;2023-06-22T03:05:55;134.40;;;21.35;;
71622;SDS011;59473;53.214;5.728;2023-06-22T03:08:20;63.17;;;17.27;;
71622;SDS011;59473;53.214;5.728;2023-06-22T03:10:45;172.87;;;21.73;;
71622;SDS011;59473;53.214;5.728;2023-06-22T03:13:10;220.07;;;23.30;;
71622;SDS011;59473;53.214;5.728;2023-06-22T03:15:36;95.00;;;19.57;;
71622;SDS011;59473;53.214;5.728;2023-06-22T03:18:01;137.83;;;21.03;;
71622;SDS011;59473;53.214;5.728;2023-06-22T03:20:26;57.50;;;19.60;;
71622;SDS011;59473;53.214;5.728;2023-06-22T03:22:58;60.95;;;20.33;;
71622;SDS011;59473;53.214;5.728;2023-06-22T03:25:23;74.03;;;18.93;;
71622;SDS011;59473;53.214;5.728;2023-06-22T03:27:48;137.60;;;21.80;;
71622;SDS011;59473;53.214;5.728;2023-06-22T03:30:14;90.80;;;20.20;;
71622;SDS011;59473;53.214;5.728;2023-06-22T03:32:39;112.70;;;20.20;;
71622;SDS011;59473;53.214;5.728;2023-06-22T03:35:04;172.13;;;21.03;;
71622;SDS011;59473;53.214;5.728;2023-06-22T03:37:31;93.15;;;20.08;;
71622;SDS011;59473;53.214;5.728;2023-06-22T03:39:56;59.37;;;18.63;;
71622;SDS011;59473;53.214;5.728;2023-06-22T03:42:21;86.90;;;20.43;;
71622;SDS011;59473;53.214;5.728;2023-06-22T03:44:47;109.87;;;21.00;;
71622;SDS011;59473;53.214;5.728;2023-06-22T03:47:12;152.87;;;22.50;;
71622;SDS011;59473;53.214;5.728;2023-06-22T03:49:38;50.40;;;19.90;;
71622;SDS011;59473;53.214;5.728;2023-06-22T03:52:03;61.00;;;18.98;;
71622;SDS011;59473;53.214;5.728;2023-06-22T03:54:29;55.00;;;18.90;;
71622;SDS011;59473;53.214;5.728;2023-06-22T03:56:54;138.00;;;20.67;;
71622;SDS011;59473;53.214;5.728;2023-06-22T03:59:19;201.93;;;21.50;;
71622;SDS011;59473;53.214;5.728;2023-06-22T04:01:45;78.20;;;18.37;;
71622;SDS011;59473;53.214;5.728;2023-06-22T04:04:11;37.87;;;16.17;;
71622;SDS011;59473;53.214;5.728;2023-06-22T04:06:36;93.85;;;18.33;;
71622;SDS011;59473;53.214;5.728;2023-06-22T04:09:02;82.60;;;17.90;;
71622;SDS011;59473;53.214;5.728;2023-06-22T04:11:27;57.43;;;17.23;;
71622;SDS011;59473;53.214;5.728;2023-06-22T04:13:52;81.00;;;17.50;;
71622;SDS011;59473;53.214;5.728;2023-06-22T04:16:18;119.13;;;19.35;;
71622;SDS011;59473;53.214;5.728;2023-06-22T04:18:44;229.97;;;20.40;;
71622;SDS011;59473;53.214;5.728;2023-06-22T04:21:09;120.07;;;19.43;;
71622;SDS011;59473;53.214;5.728;2023-06-22T04:23:35;132.43;;;18.98;;
71622;SDS011;59473;53.214;5.728;2023-06-22T04:26:00;156.67;;;21.60;;
71622;SDS011;59473;53.214;5.728;2023-06-22T04:28:25;67.13;;;19.23;;
71622;SDS011;59473;53.214;5.728;2023-06-22T04:30:50;201.50;;;22.90;;
71622;SDS011;59473;53.214;5.728;2023-06-22T04:33:16;33.63;;;19.30;;
71622;SDS011;59473;53.214;5.728;2023-06-22T04:35:41;104.50;;;21.27;;
71622;SDS011;59473;53.214;5.728;2023-06-22T04:38:07;285.10;;;25.23;;
71622;SDS011;59473;53.214;5.728;2023-06-22T04:40:32;183.82;;;22.83;;
71622;SDS011;59473;53.214;5.728;2023-06-22T04:42:57;164.57;;;21.10;;
71622;SDS011;59473;53.214;5.728;2023-06-22T04:45:23;161.87;;;23.50;;
71622;SDS011;59473;53.214;5.728;2023-06-22T04:47:48;261.93;;;24.67;;
71622;SDS011;59473;53.214;5.728;2023-06-22T04:50:13;167.47;;;22.37;;
71622;SDS011;59473;53.214;5.728;2023-06-22T04:52:39;244.13;;;25.50;;
71622;SDS011;59473;53.214;5.728;2023-06-22T04:55:04;120.87;;;21.70;;
71622;SDS011;59473;53.214;5.728;2023-06-22T04:57:30;143.77;;;22.48;;
71622;SDS011;59473;53.214;5.728;2023-06-22T04:59:58;31.67;;;19.08;;
71622;SDS011;59473;53.214;5.728;2023-06-22T05:02:36;108.82;;;21.38;;
71622;SDS011;59473;53.214;5.728;2023-06-22T05:05:01;43.90;;;19.20;;
71622;SDS011;59473;53.214;5.728;2023-06-22T05:07:31;71.68;;;20.58;;
71622;SDS011;59473;53.214;5.728;2023-06-22T05:09:57;69.63;;;19.47;;
71622;SDS011;59473;53.214;5.728;2023-06-22T05:12:22;65.63;;;19.93;;
71622;SDS011;59473;53.214;5.728;2023-06-22T05:14:47;38.03;;;19.47;;
71622;SDS011;59473;53.214;5.728;2023-06-22T05:17:12;37.03;;;20.20;;
71622;SDS011;59473;53.214;5.728;2023-06-22T05:19:39;28.83;;;19.70;;
71622;SDS011;59473;53.214;5.728;2023-06-22T05:22:04;31.40;;;20.83;;
71622;SDS011;59473;53.214;5.728;2023-06-22T05:24:31;31.83;;;21.38;;
71622;SDS011;59473;53.214;5.728;2023-06-22T05:26:56;33.97;;;21.27;;
71622;SDS011;59473;53.214;5.728;2023-06-22T05:29:21;33.97;;;22.43;;
71622;SDS011;59473;53.214;5.728;2023-06-22T05:31:47;35.50;;;22.83;;
71622;SDS011;59473;53.214;5.728;2023-06-22T05:34:12;34.20;;;22.57;;
71622;SDS011;59473;53.214;5.728;2023-06-22T05:36:38;32.13;;;22.00;;
71622;SDS011;59473;53.214;5.728;2023-06-22T05:39:10;31.30;;;21.87;;
71622;SDS011;59473;53.214;5.728;2023-06-22T05:41:37;35.17;;;21.23;;
71622;SDS011;59473;53.214;5.728;2023-06-22T05:44:02;33.73;;;21.57;;
71622;SDS011;59473;53.214;5.728;2023-06-22T05:46:28;34.72;;;21.90;;
71622;SDS011;59473;53.214;5.728;2023-06-22T05:48:53;35.40;;;22.47;;
71622;SDS011;59473;53.214;5.728;2023-06-22T05:51:19;37.53;;;21.93;;
71622;SDS011;59473;53.214;5.728;2023-06-22T05:53:44;33.63;;;21.63;;
71622;SDS011;59473;53.214;5.728;2023-06-22T05:56:11;32.05;;;20.52;;
71622;SDS011;59473;53.214;5.728;2023-06-22T05:58:36;35.43;;;21.90;;
71622;SDS011;59473;53.214;5.728;2023-06-22T06:01:02;34.27;;;22.27;;
71622;SDS011;59473;53.214;5.728;2023-06-22T06:03:27;30.03;;;20.17;;
71622;SDS011;59473;53.214;5.728;2023-06-22T06:05:53;31.25;;;20.25;;
71622;SDS011;59473;53.214;5.728;2023-06-22T06:08:19;27.80;;;19.10;;
71622;SDS011;59473;53.214;5.728;2023-06-22T06:10:44;29.17;;;19.03;;
71622;SDS011;59473;53.214;5.728;2023-06-22T06:13:09;28.70;;;18.77;;
71622;SDS011;59473;53.214;5.728;2023-06-22T06:15:34;25.10;;;16.50;;
71622;SDS011;59473;53.214;5.728;2023-06-22T06:18:00;23.00;;;16.17;;
71622;SDS011;59473;53.214;5.728;2023-06-22T06:20:25;24.67;;;16.57;;
71622;SDS011;59473;53.214;5.728;2023-06-22T06:22:52;24.63;;;16.15;;
71622;SDS011;59473;53.214;5.728;2023-06-22T06:25:17;22.20;;;14.47;;
71622;SDS011;59473;53.214;5.728;2023-06-22T06:27:48;23.05;;;15.77;;
71622;SDS011;59473;53.214;5.728;2023-06-22T06:30:15;26.55;;;16.83;;
71622;SDS011;59473;53.214;5.728;2023-06-22T06:32:40;21.05;;;15.32;;
71622;SDS011;59473;53.214;5.728;2023-06-22T06:35:06;26.35;;;15.73;;
71622;SDS011;59473;53.214;5.728;2023-06-22T06:37:32;19.73;;;13.97;;
71622;SDS011;59473;53.214;5.728;2023-06-22T06:39:58;20.38;;;14.18;;
71622;SDS011;59473;53.214;5.728;2023-06-22T06:42:23;19.17;;;13.47;;
71622;SDS011;59473;53.214;5.728;2023-06-22T06:44:49;20.08;;;13.73;;
71622;SDS011;59473;53.214;5.728;2023-06-22T06:47:15;20.80;;;13.23;;
71622;SDS011;59473;53.214;5.728;2023-06-22T06:49:40;19.10;;;12.83;;
71622;SDS011;59473;53.214;5.728;2023-06-22T06:52:05;17.63;;;12.63;;
71622;SDS011;59473;53.214;5.728;2023-06-22T06:54:31;18.52;;;12.55;;
71622;SDS011;59473;53.214;5.728;2023-06-22T06:56:56;20.00;;;11.97;;
71622;SDS011;59473;53.214;5.728;2023-06-22T06:59:21;18.63;;;13.07;;
71622;SDS011;59473;53.214;5.728;2023-06-22T07:01:47;17.77;;;12.47;;
71622;SDS011;59473;53.214;5.728;2023-06-22T07:04:13;20.42;;;11.77;;
71622;SDS011;59473;53.214;5.728;2023-06-22T07:06:38;17.33;;;11.70;;
71622;SDS011;59473;53.214;5.728;2023-06-22T07:09:04;16.73;;;11.70;;
71622;SDS011;59473;53.214;5.728;2023-06-22T07:11:29;16.50;;;10.50;;
71622;SDS011;59473;53.214;5.728;2023-06-22T07:13:54;15.27;;;10.33;;
71622;SDS011;59473;53.214;5.728;2023-06-22T07:16:19;16.57;;;10.77;;
71622;SDS011;59473;53.214;5.728;2023-06-22T07:18:45;16.43;;;11.77;;
71622;SDS011;59473;53.214;5.728;2023-06-22T07:21:10;21.07;;;13.33;;
71622;SDS011;59473;53.214;5.728;2023-06-22T07:23:35;16.87;;;12.27;;
71622;SDS011;59473;53.214;5.728;2023-06-22T07:26:00;17.93;;;11.90;;
71622;SDS011;59473;53.214;5.728;2023-06-22T07:28:31;17.02;;;11.88;;
71622;SDS011;59473;53.214;5.728;2023-06-22T07:31:01;17.55;;;12.57;;
71622;SDS011;59473;53.214;5.728;2023-06-22T07:33:27;18.57;;;12.47;;
71622;SDS011;59473;53.214;5.728;2023-06-22T07:35:52;18.67;;;12.77;;
71622;SDS011;59473;53.214;5.728;2023-06-22T07:38:18;19.00;;;12.73;;
71622;SDS011;59473;53.214;5.728;2023-06-22T07:40:43;19.23;;;12.67;;
71622;SDS011;59473;53.214;5.728;2023-06-22T07:43:09;18.30;;;11.75;;
71622;SDS011;59473;53.214;5.728;2023-06-22T07:45:34;17.67;;;11.77;;
71622;SDS011;59473;53.214;5.728;2023-06-22T07:48:00;17.35;;;12.18;;
71622;SDS011;59473;53.214;5.728;2023-06-22T07:50:25;18.87;;;12.73;;
71622;SDS011;59473;53.214;5.728;2023-06-22T07:52:50;14.70;;;11.10;;
71622;SDS011;59473;53.214;5.728;2023-06-22T07:55:17;17.33;;;12.13;;
71622;SDS011;59473;53.214;5.728;2023-06-22T07:57:43;18.33;;;11.60;;
71622;SDS011;59473;53.214;5.728;2023-06-22T08:00:08;16.67;;;11.70;;
71622;SDS011;59473;53.214;5.728;2023-06-22T08:02:40;17.67;;;11.15;;
71622;SDS011;59473;53.214;5.728;2023-06-22T08:05:06;17.38;;;11.30;;
71622;SDS011;59473;53.214;5.728;2023-06-22T08:07:33;19.37;;;12.70;;
71622;SDS011;59473;53.214;5.728;2023-06-22T08:09:58;16.33;;;11.70;;
71622;SDS011;59473;53.214;5.728;2023-06-22T08:12:23;15.73;;;11.07;;
71622;SDS011;59473;53.214;5.728;2023-06-22T08:14:49;15.80;;;11.27;;
71622;SDS011;59473;53.214;5.728;2023-06-22T08:17:14;17.70;;;11.75;;
71622;SDS011;59473;53.214;5.728;2023-06-22T08:19:39;19.13;;;11.83;;
71622;SDS011;59473;53.214;5.728;2023-06-22T08:22:05;17.90;;;11.60;;
71622;SDS011;59473;53.214;5.728;2023-06-22T08:24:30;17.30;;;11.10;;
71622;SDS011;59473;53.214;5.728;2023-06-22T08:26:55;17.97;;;12.73;;
71622;SDS011;59473;53.214;5.728;2023-06-22T08:29:21;17.83;;;12.27;;
71622;SDS011;59473;53.214;5.728;2023-06-22T08:31:46;17.90;;;11.30;;
71622;SDS011;59473;53.214;5.728;2023-06-22T08:34:11;18.17;;;11.43;;
71622;SDS011;59473;53.214;5.728;2023-06-22T08:36:37;16.17;;;10.23;;
71622;SDS011;59473;53.214;5.728;2023-06-22T08:39:06;17.17;;;9.73;;
71622;SDS011;59473;53.214;5.728;2023-06-22T08:41:31;16.35;;;10.40;;
71622;SDS011;59473;53.214;5.728;2023-06-22T08:43:57;18.93;;;12.43;;
71622;SDS011;59473;53.214;5.728;2023-06-22T08:46:22;19.67;;;12.17;;
71622;SDS011;59473;53.214;5.728;2023-06-22T08:48:55;17.00;;;11.15;;
71622;SDS011;59473;53.214;5.728;2023-06-22T08:51:20;16.77;;;11.90;;
71622;SDS011;59473;53.214;5.728;2023-06-22T08:53:45;18.73;;;11.57;;
71622;SDS011;59473;53.214;5.728;2023-06-22T08:56:10;20.33;;;13.03;;
71622;SDS011;59473;53.214;5.728;2023-06-22T08:58:36;18.90;;;12.23;;
71622;SDS011;59473;53.214;5.728;2023-06-22T09:01:01;17.27;;;12.02;;
71622;SDS011;59473;53.214;5.728;2023-06-22T09:03:27;16.42;;;9.70;;
71622;SDS011;59473;53.214;5.728;2023-06-22T09:05:52;17.00;;;10.23;;
71622;SDS011;59473;53.214;5.728;2023-06-22T09:08:17;20.40;;;11.70;;
71622;SDS011;59473;53.214;5.728;2023-06-22T09:10:42;18.03;;;11.10;;
71622;SDS011;59473;53.214;5.728;2023-06-22T09:13:08;14.77;;;8.67;;
71622;SDS011;59473;53.214;5.728;2023-06-22T09:15:33;15.90;;;10.13;;
71622;SDS011;59473;53.214;5.728;2023-06-22T09:17:59;14.70;;;9.15;;
71622;SDS011;59473;53.214;5.728;2023-06-22T09:20:24;15.23;;;8.73;;
71622;SDS011;59473;53.214;5.728;2023-06-22T09:22:50;15.40;;;10.00;;
71622;SDS011;59473;53.214;5.728;2023-06-22T09:25:15;14.83;;;8.30;;
71622;SDS011;59473;53.214;5.728;2023-06-22T09:27:40;12.73;;;7.80;;
71622;SDS011;59473;53.214;5.728;2023-06-22T09:30:06;14.90;;;7.80;;
71622;SDS011;59473;53.214;5.728;2023-06-22T09:32:31;12.75;;;7.30;;
71622;SDS011;59473;53.214;5.728;2023-06-22T09:34:57;13.47;;;7.80;;
71622;SDS011;59473;53.214;5.728;2023-06-22T09:37:22;11.03;;;6.30;;
71622;SDS011;59473;53.214;5.728;2023-06-22T09:39:47;14.23;;;8.10;;
71622;SDS011;59473;53.214;5.728;2023-06-22T09:42:12;11.17;;;6.60;;
71622;SDS011;59473;53.214;5.728;2023-06-22T09:44:38;12.15;;;7.32;;
71622;SDS011;59473;53.214;5.728;2023-06-22T09:47:03;12.73;;;6.63;;
71622;SDS011;59473;53.214;5.728;2023-06-22T09:49:29;15.70;;;7.80;;
71622;SDS011;59473;53.214;5.728;2023-06-22T09:51:54;11.20;;;6.43;;
71622;SDS011;59473;53.214;5.728;2023-06-22T09:54:19;11.57;;;7.17;;
71622;SDS011;59473;53.214;5.728;2023-06-22T09:56:44;12.47;;;6.93;;
71622;SDS011;59473;53.214;5.728;2023-06-22T09:59:10;12.23;;;7.30;;
71622;SDS011;59473;53.214;5.728;2023-06-22T10:01:35;11.33;;;7.00;;
71622;SDS011;59473;53.214;5.728;2023-06-22T10:04:01;12.30;;;7.17;;
71622;SDS011;59473;53.214;5.728;2023-06-22T10:06:27;11.10;;;5.72;;
71622;SDS011;59473;53.214;5.728;2023-06-22T10:08:52;14.37;;;6.27;;
71622;SDS011;59473;53.214;5.728;2023-06-22T10:11:17;14.30;;;6.60;;
71622;SDS011;59473;53.214;5.728;2023-06-22T10:13:43;12.83;;;5.93;;
71622;SDS011;59473;53.214;5.728;2023-06-22T10:16:08;12.30;;;7.23;;
71622;SDS011;59473;53.214;5.728;2023-06-22T10:18:33;16.50;;;8.13;;
71622;SDS011;59473;53.214;5.728;2023-06-22T10:20:58;13.13;;;7.63;;
71622;SDS011;59473;53.214;5.728;2023-06-22T10:23:24;11.80;;;6.73;;
71622;SDS011;59473;53.214;5.728;2023-06-22T10:25:49;11.67;;;6.10;;
71622;SDS011;59473;53.214;5.728;2023-06-22T10:28:14;13.30;;;5.83;;
71622;SDS011;59473;53.214;5.728;2023-06-22T10:30:40;8.63;;;4.85;;
71622;SDS011;59473;53.214;5.728;2023-06-22T10:33:11;9.17;;;4.43;;
71622;SDS011;59473;53.214;5.728;2023-06-22T10:35:37;9.85;;;5.45;;
71622;SDS011;59473;53.214;5.728;2023-06-22T10:38:02;9.70;;;5.05;;
71622;SDS011;59473;53.214;5.728;2023-06-22T10:40:28;9.67;;;4.77;;
71622;SDS011;59473;53.214;5.728;2023-06-22T10:42:53;8.00;;;4.10;;
71622;SDS011;59473;53.214;5.728;2023-06-22T10:45:18;8.80;;;4.30;;
71622;SDS011;59473;53.214;5.728;2023-06-22T10:47:43;7.93;;;4.47;;
71622;SDS011;59473;53.214;5.728;2023-06-22T10:50:09;7.93;;;3.27;;
71622;SDS011;59473;53.214;5.728;2023-06-22T10:52:34;10.73;;;3.70;;
71622;SDS011;59473;53.214;5.728;2023-06-22T10:54:59;11.00;;;3.97;;
71622;SDS011;59473;53.214;5.728;2023-06-22T10:57:25;8.30;;;3.93;;
71622;SDS011;59473;53.214;5.728;2023-06-22T10:59:50;7.67;;;3.57;;
71622;SDS011;59473;53.214;5.728;2023-06-22T11:02:15;7.17;;;4.00;;
71622;SDS011;59473;53.214;5.728;2023-06-22T11:04:40;9.33;;;4.50;;
71622;SDS011;59473;53.214;5.728;2023-06-22T11:07:05;10.43;;;6.30;;
71622;SDS011;59473;53.214;5.728;2023-06-22T11:09:31;9.50;;;4.70;;
71622;SDS011;59473;53.214;5.728;2023-06-22T11:11:56;8.67;;;4.53;;
71622;SDS011;59473;53.214;5.728;2023-06-22T11:14:23;12.10;;;5.13;;
71622;SDS011;59473;53.214;5.728;2023-06-22T11:16:49;10.82;;;5.03;;
71622;SDS011;59473;53.214;5.728;2023-06-22T11:19:14;13.38;;;5.60;;
71622;SDS011;59473;53.214;5.728;2023-06-22T11:21:40;11.73;;;5.20;;
71622;SDS011;59473;53.214;5.728;2023-06-22T11:24:05;10.43;;;5.20;;
71622;SDS011;59473;53.214;5.728;2023-06-22T11:26:30;9.37;;;5.17;;
71622;SDS011;59473;53.214;5.728;2023-06-22T11:28:57;10.65;;;5.35;;
71622;SDS011;59473;53.214;5.728;2023-06-22T11:31:22;8.40;;;4.60;;
71622;SDS011;59473;53.214;5.728;2023-06-22T11:33:47;10.23;;;5.30;;
71622;SDS011;59473;53.214;5.728;2023-06-22T11:36:13;12.57;;;5.05;;
71622;SDS011;59473;53.214;5.728;2023-06-22T11:38:38;11.03;;;5.20;;
71622;SDS011;59473;53.214;5.728;2023-06-22T11:41:08;10.45;;;5.25;;
71622;SDS011;59473;53.214;5.728;2023-06-22T11:43:33;10.88;;;5.20;;
71622;SDS011;59473;53.214;5.728;2023-06-22T11:45:59;9.57;;;5.87;;
71622;SDS011;59473;53.214;5.728;2023-06-22T11:48:24;11.23;;;5.53;;
71622;SDS011;59473;53.214;5.728;2023-06-22T11:50:50;11.07;;;5.10;;
71622;SDS011;59473;53.214;5.728;2023-06-22T11:53:15;8.20;;;4.97;;
71622;SDS011;59473;53.214;5.728;2023-06-22T11:55:42;10.68;;;5.13;;
71622;SDS011;59473;53.214;5.728;2023-06-22T11:58:07;8.37;;;4.97;;
71622;SDS011;59473;53.214;5.728;2023-06-22T12:00:33;9.82;;;4.90;;
71622;SDS011;59473;53.214;5.728;2023-06-22T12:02:58;10.17;;;4.40;;
71622;SDS011;59473;53.214;5.728;2023-06-22T12:05:24;8.20;;;3.67;;
71622;SDS011;59473;53.214;5.728;2023-06-22T12:07:49;9.13;;;3.90;;
71622;SDS011;59473;53.214;5.728;2023-06-22T12:10:15;7.03;;;3.43;;
71622;SDS011;59473;53.214;5.728;2023-06-22T12:12:40;6.53;;;3.27;;
71622;SDS011;59473;53.214;5.728;2023-06-22T12:15:07;7.55;;;2.92;;
71622;SDS011;59473;53.214;5.728;2023-06-22T12:17:33;9.13;;;3.17;;
71622;SDS011;59473;53.214;5.728;2023-06-22T12:19:58;5.83;;;2.73;;
71622;SDS011;59473;53.214;5.728;2023-06-22T12:22:24;7.40;;;3.30;;
71622;SDS011;59473;53.214;5.728;2023-06-22T12:24:49;7.10;;;2.93;;
71622;SDS011;59473;53.214;5.728;2023-06-22T12:27:15;9.87;;;3.03;;
71622;SDS011;59473;53.214;5.728;2023-06-22T12:29:41;8.45;;;3.30;;
71622;SDS011;59473;53.214;5.728;2023-06-22T12:32:06;7.70;;;3.10;;
71622;SDS011;59473;53.214;5.728;2023-06-22T12:34:32;5.95;;;2.92;;
71622;SDS011;59473;53.214;5.728;2023-06-22T12:36:57;7.63;;;2.30;;
71622;SDS011;59473;53.214;5.728;2023-06-22T12:39:22;5.77;;;2.20;;
71622;SDS011;59473;53.214;5.728;2023-06-22T12:41:47;6.30;;;2.03;;
71622;SDS011;59473;53.214;5.728;2023-06-22T12:44:13;4.60;;;1.90;;
71622;SDS011;59473;53.214;5.728;2023-06-22T12:46:38;6.80;;;1.90;;
71622;SDS011;59473;53.214;5.728;2023-06-22T12:49:04;7.07;;;1.90;;
71622;SDS011;59473;53.214;5.728;2023-06-22T12:51:29;4.43;;;1.53;;
71622;SDS011;59473;53.214;5.728;2023-06-22T12:53:54;4.20;;;1.33;;
71622;SDS011;59473;53.214;5.728;2023-06-22T12:56:19;4.00;;;1.57;;
71622;SDS011;59473;53.214;5.728;2023-06-22T12:58:44;4.90;;;1.80;;
71622;SDS011;59473;53.214;5.728;2023-06-22T13:01:10;5.07;;;1.60;;
71622;SDS011;59473;53.214;5.728;2023-06-22T13:03:35;6.03;;;1.97;;
71622;SDS011;59473;53.214;5.728;2023-06-22T13:06:00;4.18;;;1.60;;
71622;SDS011;59473;53.214;5.728;2023-06-22T13:08:25;6.22;;;2.03;;
71622;SDS011;59473;53.214;5.728;2023-06-22T13:10:51;4.97;;;1.60;;
71622;SDS011;59473;53.214;5.728;2023-06-22T13:13:16;5.37;;;1.80;;
71622;SDS011;59473;53.214;5.728;2023-06-22T13:15:41;5.07;;;2.10;;
71622;SDS011;59473;53.214;5.728;2023-06-22T13:18:07;5.27;;;1.90;;
71622;SDS011;59473;53.214;5.728;2023-06-22T13:20:32;6.03;;;2.00;;
71622;SDS011;59473;53.214;5.728;2023-06-22T13:22:57;5.03;;;2.10;;
71622;SDS011;59473;53.214;5.728;2023-06-22T13:25:22;5.77;;;2.17;;
71622;SDS011;59473;53.214;5.728;2023-06-22T13:27:51;6.88;;;1.60;;
71622;SDS011;59473;53.214;5.728;2023-06-22T13:30:16;5.47;;;1.90;;
71622;SDS011;59473;53.214;5.728;2023-06-22T13:32:41;11.10;;;1.97;;
71622;SDS011;59473;53.214;5.728;2023-06-22T13:35:08;4.53;;;1.53;;
71622;SDS011;59473;53.214;5.728;2023-06-22T13:37:33;5.15;;;1.80;;
71622;SDS011;59473;53.214;5.728;2023-06-22T13:39:58;6.27;;;1.60;;
71622;SDS011;59473;53.214;5.728;2023-06-22T13:42:24;5.10;;;2.00;;
71622;SDS011;59473;53.214;5.728;2023-06-22T13:44:50;3.83;;;1.50;;
71622;SDS011;59473;53.214;5.728;2023-06-22T13:47:15;7.17;;;1.60;;
71622;SDS011;59473;53.214;5.728;2023-06-22T13:49:40;5.87;;;2.00;;
71622;SDS011;59473;53.214;5.728;2023-06-22T13:52:05;9.63;;;1.90;;
71622;SDS011;59473;53.214;5.728;2023-06-22T13:54:35;5.63;;;1.75;;
71622;SDS011;59473;53.214;5.728;2023-06-22T13:57:00;4.77;;;1.53;;
71622;SDS011;59473;53.214;5.728;2023-06-22T13:59:25;5.80;;;1.67;;
71622;SDS011;59473;53.214;5.728;2023-06-22T14:01:52;6.22;;;2.00;;
71622;SDS011;59473;53.214;5.728;2023-06-22T14:04:18;5.05;;;1.70;;
71622;SDS011;59473;53.214;5.728;2023-06-22T14:06:43;5.40;;;1.65;;
71622;SDS011;59473;53.214;5.728;2023-06-22T14:09:08;4.00;;;1.42;;
71622;SDS011;59473;53.214;5.728;2023-06-22T14:11:34;6.55;;;2.03;;
71622;SDS011;59473;53.214;5.728;2023-06-22T14:13:59;6.57;;;2.30;;
71622;SDS011;59473;53.214;5.728;2023-06-22T14:16:25;8.43;;;1.60;;
71622;SDS011;59473;53.214;5.728;2023-06-22T14:18:50;6.63;;;1.70;;
71622;SDS011;59473;53.214;5.728;2023-06-22T14:21:15;4.23;;;1.30;;
71622;SDS011;59473;53.214;5.728;2023-06-22T14:23:40;7.80;;;1.70;;
71622;SDS011;59473;53.214;5.728;2023-06-22T14:26:06;6.47;;;1.20;;
71622;SDS011;59473;53.214;5.728;2023-06-22T14:28:31;4.53;;;1.70;;